Time;durP1;ratioP1;P1;durP2;ratioP2;P2;SDS_P1;SDS_P2;PMS_P1;PMS_P2;Temp;Humidity;BMP_temperature;BMP_pressure;BME280_temperature;BME280_humidity;BME280_pressure;Samples;Min_cycle;Max_cycle;Signal;HPM_P1;HPM_P2
2021/01/24 06:01:30;;;;;;;46.80;18.80;;;-0.10;97.30;;;;;;5550813;23;20504;-71
2021/01/24 06:03:58;;;;;;;44.47;16.83;;;-0.10;97.30;;;;;;4901409;29;20903;-73
2021/01/24 06:06:25;;;;;;;47.70;17.90;;;-0.10;97.30;;;;;;4900469;29;20462;-71
2021/01/24 06:08:50;;;;;;;48.67;18.23;;;0.00;97.30;;;;;;4900713;29;20429;-71
2021/01/24 06:11:17;;;;;;;41.60;16.53;;;0.00;97.30;;;;;;4899648;29;20457;-71
2021/01/24 06:13:48;;;;;;;47.97;18.83;;;0.00;97.30;;;;;;4900258;29;20236;-70
2021/01/24 06:16:29;;;;;;;42.17;16.73;;;0.00;97.30;;;;;;4901816;29;20903;-70
2021/01/24 06:19:02;;;;;;;50.50;19.00;;;0.00;97.30;;;;;;4900289;29;20983;-70
2021/01/24 06:21:35;;;;;;;47.57;18.07;;;0.00;97.30;;;;;;4899961;29;20850;-71
2021/01/24 06:24:13;;;;;;;43.37;17.90;;;0.00;97.30;;;;;;4901865;29;20856;-70
2021/01/24 06:26:41;;;;;;;45.90;17.60;;;0.10;97.30;;;;;;4900187;29;20434;-71
2021/01/24 06:29:10;;;;;;;41.10;16.97;;;0.10;97.30;;;;;;4900199;29;20413;-71
2021/01/24 06:31:47;;;;;;;42.83;17.50;;;0.10;97.30;;;;;;4900968;29;20492;-72
2021/01/24 06:34:12;;;;;;;40.87;17.90;;;0.10;97.30;;;;;;4901443;29;20413;-70
2021/01/24 06:37:05;;;;;;;38.07;16.53;;;0.10;97.30;;;;;;4901318;29;20484;-70
2021/01/24 06:39:42;;;;;;;36.33;17.47;;;0.10;97.30;;;;;;4883062;29;20196;-70
2021/01/24 06:42:08;;;;;;;40.73;17.30;;;0.10;97.30;;;;;;4901275;29;20862;-72
2021/01/24 06:44:38;;;;;;;42.67;17.73;;;0.20;97.30;;;;;;4901440;29;20434;-71
2021/01/24 06:47:06;;;;;;;42.80;16.80;;;0.20;97.30;;;;;;4900060;29;20801;-70
2021/01/24 06:49:38;;;;;;;45.60;17.47;;;0.20;97.30;;;;;;4901018;29;20560;-70
2021/01/24 06:52:21;;;;;;;42.93;17.57;;;0.20;97.30;;;;;;4903018;29;20516;-71
2021/01/24 06:54:48;;;;;;;50.37;18.33;;;0.20;97.30;;;;;;4902740;29;20473;-71
2021/01/24 06:57:14;;;;;;;45.87;18.87;;;0.20;97.30;;;;;;4900949;29;20547;-70
2021/01/24 06:59:40;;;;;;;43.80;17.43;;;0.20;97.30;;;;;;4902154;29;20421;-70
2021/01/24 07:02:26;;;;;;;46.13;17.00;;;0.20;97.30;;;;;;4900963;29;20803;-71
2021/01/24 07:05:14;;;;;;;44.97;19.17;;;0.20;97.30;;;;;;4900720;29;20196;-71
2021/01/24 07:07:41;;;;;;;40.43;17.73;;;0.30;97.30;;;;;;4900950;29;20569;-70
2021/01/24 07:10:10;;;;;;;47.53;18.07;;;0.30;97.30;;;;;;4898923;29;20601;-72
2021/01/24 07:12:41;;;;;;;44.37;17.40;;;0.30;97.30;;;;;;4899132;29;20472;-71
2021/01/24 07:15:26;;;;;;;41.07;16.93;;;0.30;97.30;;;;;;4899476;29;20473;-72
2021/01/24 07:17:59;;;;;;;42.53;17.37;;;0.30;97.30;;;;;;4897772;29;20417;-71
2021/01/24 07:20:25;;;;;;;39.80;18.07;;;0.30;97.30;;;;;;4898634;29;20522;-69
2021/01/24 07:22:54;;;;;;;56.70;18.90;;;0.30;97.30;;;;;;4900101;29;20509;-70
2021/01/24 07:25:21;;;;;;;44.30;16.30;;;0.20;97.30;;;;;;4898980;29;20796;-71
2021/01/24 07:27:52;;;;;;;53.80;19.40;;;0.30;97.30;;;;;;4900210;29;20414;-70
2021/01/24 07:30:23;;;;;;;43.63;17.10;;;0.30;97.30;;;;;;4900078;29;20509;-70
2021/01/24 07:32:49;;;;;;;50.90;18.93;;;0.30;97.30;;;;;;4900201;29;20466;-72
2021/01/24 07:35:15;;;;;;;39.10;15.87;;;0.30;97.30;;;;;;4900198;29;20413;-71
2021/01/24 07:37:42;;;;;;;45.00;18.10;;;0.30;97.30;;;;;;4898605;29;20410;-71
2021/01/24 07:40:08;;;;;;;42.40;16.40;;;0.30;97.30;;;;;;4897992;29;20840;-71
2021/01/24 07:42:34;;;;;;;49.80;18.13;;;0.30;97.30;;;;;;4898590;29;20476;-71
2021/01/24 07:45:00;;;;;;;47.83;16.33;;;0.30;97.30;;;;;;4899835;29;20924;-70
2021/01/24 07:47:26;;;;;;;46.93;18.07;;;0.30;97.30;;;;;;4900008;29;20185;-70
2021/01/24 07:49:52;;;;;;;46.03;16.60;;;0.30;97.30;;;;;;4899699;29;20437;-71
2021/01/24 07:52:19;;;;;;;44.03;16.83;;;0.30;97.30;;;;;;4898864;29;20215;-71
2021/01/24 07:54:46;;;;;;;47.67;17.87;;;0.40;97.30;;;;;;4898873;29;20503;-70
2021/01/24 07:57:12;;;;;;;43.43;17.00;;;0.40;97.30;;;;;;4900140;29;20505;-71
2021/01/24 07:59:37;;;;;;;45.40;16.63;;;0.40;97.30;;;;;;4898974;29;20424;-70
2021/01/24 08:02:04;;;;;;;48.27;18.23;;;0.40;97.30;;;;;;4898449;29;20834;-71
2021/01/24 08:04:32;;;;;;;46.33;16.20;;;0.50;97.30;;;;;;4899769;29;20185;-71
2021/01/24 08:06:58;;;;;;;41.17;16.70;;;0.50;97.30;;;;;;4900196;29;20427;-70
2021/01/24 08:09:25;;;;;;;44.73;17.87;;;0.50;97.30;;;;;;4898762;29;20425;-72
2021/01/24 08:11:51;;;;;;;46.63;16.87;;;0.50;97.30;;;;;;4898099;29;20445;-70
2021/01/24 08:14:17;;;;;;;39.73;16.10;;;0.50;97.30;;;;;;4898750;29;20924;-71
2021/01/24 08:16:48;;;;;;;49.90;17.23;;;0.50;97.30;;;;;;4899734;29;20240;-71
2021/01/24 08:19:24;;;;;;;41.43;17.67;;;0.60;97.30;;;;;;4897895;29;20197;-72
2021/01/24 08:21:51;;;;;;;38.10;16.30;;;0.60;97.30;;;;;;4898409;29;20858;-71
2021/01/24 08:24:17;;;;;;;40.33;15.60;;;0.70;97.30;;;;;;4898377;29;20436;-71
2021/01/24 08:26:43;;;;;;;43.07;17.47;;;0.70;97.30;;;;;;4899724;29;20421;-70
2021/01/24 08:29:09;;;;;;;40.67;16.80;;;0.70;97.30;;;;;;4898589;29;20417;-71
2021/01/24 08:31:35;;;;;;;45.43;16.73;;;0.70;97.30;;;;;;4899622;29;20575;-71
2021/01/24 08:34:02;;;;;;;43.67;17.53;;;0.70;97.30;;;;;;4898518;29;20465;-71
2021/01/24 08:36:29;;;;;;;43.77;17.50;;;0.70;97.30;;;;;;4898920;29;20188;-72
2021/01/24 08:38:56;;;;;;;45.70;17.30;;;0.70;97.30;;;;;;4899067;29;20501;-71
2021/01/24 08:41:37;;;;;;;37.47;15.43;;;0.80;97.30;;;;;;4897906;29;20528;-70
2021/01/24 08:44:13;;;;;;;43.00;16.30;;;0.80;97.30;;;;;;4899741;29;20406;-71
2021/01/24 08:46:43;;;;;;;48.23;18.80;;;0.90;97.30;;;;;;4897888;29;20942;-71
2021/01/24 08:49:19;;;;;;;41.77;16.87;;;0.90;97.30;;;;;;4898934;29;20436;-71
2021/01/24 08:51:44;;;;;;;45.93;17.57;;;1.00;97.30;;;;;;4898846;29;20445;-71
2021/01/24 08:54:14;;;;;;;43.10;15.63;;;1.00;97.30;;;;;;4898818;29;20418;-71
2021/01/24 08:56:40;;;;;;;39.80;15.87;;;1.00;97.30;;;;;;4897546;29;20203;-71
2021/01/24 08:59:26;;;;;;;36.47;16.63;;;1.10;97.30;;;;;;4898866;29;20504;-71
2021/01/24 09:01:53;;;;;;;40.57;17.17;;;1.10;97.30;;;;;;4897291;29;20343;-71
2021/01/24 09:04:20;;;;;;;37.53;16.30;;;1.20;97.30;;;;;;4897464;29;20428;-71
2021/01/24 09:07:09;;;;;;;40.97;14.73;;;1.20;97.30;;;;;;4898078;29;20957;-71
2021/01/24 09:09:37;;;;;;;42.17;16.60;;;1.30;97.30;;;;;;4898654;29;20911;-70
2021/01/24 09:12:04;;;;;;;40.17;14.77;;;1.30;97.30;;;;;;4897181;29;20464;-71
2021/01/24 09:14:31;;;;;;;38.80;15.33;;;1.30;97.30;;;;;;4888869;29;20610;-69
2021/01/24 09:17:01;;;;;;;36.10;16.30;;;1.30;97.30;;;;;;4897695;29;20425;-70
2021/01/24 09:19:27;;;;;;;46.13;19.07;;;1.30;97.30;;;;;;4897830;29;20772;-71
2021/01/24 09:21:56;;;;;;;40.07;17.87;;;1.30;97.30;;;;;;4898398;29;20465;-71
2021/01/24 09:24:22;;;;;;;39.30;15.47;;;1.30;97.30;;;;;;4898581;29;20425;-71
2021/01/24 09:26:48;;;;;;;32.07;14.70;;;1.30;97.30;;;;;;4881818;29;20422;-71
2021/01/24 09:29:15;;;;;;;36.63;17.10;;;1.40;97.30;;;;;;4897904;29;20418;-71
2021/01/24 09:31:41;;;;;;;33.83;15.50;;;1.40;97.30;;;;;;4897986;29;20433;-71
2021/01/24 09:34:06;;;;;;;36.03;14.70;;;1.40;97.30;;;;;;4897471;29;21012;-71
2021/01/24 09:36:33;;;;;;;31.83;14.17;;;1.40;97.30;;;;;;4898238;29;20426;-70
2021/01/24 09:38:58;;;;;;;37.93;14.70;;;1.50;97.30;;;;;;4896778;29;20648;-70
2021/01/24 09:41:24;;;;;;;34.13;15.20;;;1.50;97.30;;;;;;4897954;29;20441;-71
2021/01/24 09:43:51;;;;;;;37.20;15.80;;;1.50;97.30;;;;;;4896160;29;20185;-70
2021/01/24 09:46:16;;;;;;;36.63;14.83;;;1.50;97.30;;;;;;4897027;29;20172;-71
2021/01/24 09:48:42;;;;;;;41.53;16.60;;;1.50;97.30;;;;;;4896876;29;20488;-70
2021/01/24 09:51:09;;;;;;;35.23;15.30;;;1.60;97.30;;;;;;4896724;29;20278;-70
2021/01/24 09:53:41;;;;;;;36.50;16.23;;;1.60;97.30;;;;;;4896580;29;20204;-70
2021/01/24 09:56:07;;;;;;;31.33;13.33;;;1.50;97.30;;;;;;4896599;29;20426;-71
2021/01/24 09:58:33;;;;;;;42.67;15.10;;;1.50;97.30;;;;;;4897977;29;20416;-71
2021/01/24 10:00:59;;;;;;;35.93;14.73;;;1.50;97.30;;;;;;4896138;29;20453;-70
2021/01/24 10:03:25;;;;;;;28.77;13.50;;;1.50;97.30;;;;;;4897734;29;20797;-70
2021/01/24 10:05:51;;;;;;;34.00;13.43;;;1.50;97.30;;;;;;4898036;29;20428;-69
2021/01/24 10:08:17;;;;;;;37.00;14.63;;;1.50;97.30;;;;;;4898042;29;20263;-71
2021/01/24 10:10:47;;;;;;;36.30;14.57;;;1.50;97.30;;;;;;4897653;29;20469;-70
2021/01/24 10:13:13;;;;;;;39.00;15.57;;;1.60;97.30;;;;;;4897942;29;21052;-70
2021/01/24 10:15:41;;;;;;;51.23;19.93;;;1.60;97.30;;;;;;4896823;29;20472;-70
2021/01/24 10:18:07;;;;;;;38.70;16.17;;;1.60;97.30;;;;;;4898070;29;20501;-70
2021/01/24 10:20:33;;;;;;;32.77;13.50;;;1.70;97.30;;;;;;4896312;29;20946;-69
2021/01/24 10:23:00;;;;;;;27.67;12.20;;;1.70;97.30;;;;;;4897805;29;20418;-69
2021/01/24 10:25:26;;;;;;;28.90;13.47;;;1.80;97.30;;;;;;4896459;29;20426;-69
2021/01/24 10:27:51;;;;;;;29.30;13.97;;;1.90;97.30;;;;;;4896750;29;20469;-70
2021/01/24 10:30:19;;;;;;;28.40;13.27;;;1.90;97.30;;;;;;4896189;29;20185;-70
2021/01/24 10:32:44;;;;;;;28.83;13.17;;;2.00;97.30;;;;;;4895663;29;20667;-69
2021/01/24 10:35:11;;;;;;;24.07;10.73;;;2.00;97.30;;;;;;4897447;29;20432;-71
2021/01/24 10:37:37;;;;;;;27.10;11.07;;;2.00;97.30;;;;;;4900532;29;20184;-70
2021/01/24 10:40:06;;;;;;;27.17;11.20;;;2.00;97.30;;;;;;4901846;29;20418;-70
2021/01/24 10:42:32;;;;;;;29.30;11.93;;;2.00;97.30;;;;;;4899814;29;20452;-74
2021/01/24 10:44:59;;;;;;;23.80;10.83;;;2.00;97.30;;;;;;4901061;29;20849;-70
2021/01/24 10:47:26;;;;;;;22.67;10.90;;;2.00;97.30;;;;;;4902205;29;20763;-71
2021/01/24 10:49:52;;;;;;;30.30;12.47;;;2.00;97.30;;;;;;4900016;29;20666;-70
2021/01/24 10:52:18;;;;;;;29.57;13.57;;;2.00;97.30;;;;;;4901530;29;20488;-71
2021/01/24 10:54:44;;;;;;;30.80;13.50;;;2.00;97.30;;;;;;4901736;29;20188;-71
2021/01/24 10:57:09;;;;;;;33.23;14.17;;;2.00;97.30;;;;;;4899534;29;20438;-70
2021/01/24 10:59:35;;;;;;;24.30;12.30;;;2.10;97.30;;;;;;4899799;29;20220;-70
2021/01/24 11:02:01;;;;;;;30.73;12.57;;;2.10;97.30;;;;;;4900742;29;20208;-70
2021/01/24 11:04:30;;;;;;;33.33;13.70;;;2.10;97.30;;;;;;4901022;29;20506;-69
2021/01/24 11:06:55;;;;;;;28.27;12.50;;;2.10;97.30;;;;;;4899627;29;20549;-69
2021/01/24 11:09:22;;;;;;;28.30;12.40;;;2.20;97.30;;;;;;4898770;29;20434;-69
2021/01/24 11:11:48;;;;;;;30.80;12.27;;;2.20;97.30;;;;;;4900877;29;20437;-70
2021/01/24 11:14:14;;;;;;;24.63;12.03;;;2.20;97.30;;;;;;4900743;29;20421;-70
2021/01/24 11:16:39;;;;;;;29.57;11.97;;;2.20;97.30;;;;;;4899389;29;20185;-70
2021/01/24 11:19:05;;;;;;;30.80;12.90;;;2.20;97.30;;;;;;4898392;29;20193;-70
2021/01/24 11:21:31;;;;;;;27.60;11.53;;;2.20;97.30;;;;;;4899291;29;20193;-71
2021/01/24 11:23:57;;;;;;;28.33;13.00;;;2.20;97.30;;;;;;4898687;29;20193;-71
2021/01/24 11:26:23;;;;;;;28.73;14.73;;;2.10;97.30;;;;;;4899821;29;20216;-69
2021/01/24 11:28:48;;;;;;;26.73;12.30;;;2.10;97.30;;;;;;4899431;29;20794;-69
2021/01/24 11:31:14;;;;;;;31.60;13.43;;;2.10;97.30;;;;;;4900187;29;20671;-69
2021/01/24 11:33:40;;;;;;;30.03;13.00;;;2.20;97.30;;;;;;4900654;29;20197;-70
2021/01/24 11:36:06;;;;;;;29.40;13.00;;;2.10;97.30;;;;;;4898476;29;20557;-69
2021/01/24 11:38:32;;;;;;;26.50;10.67;;;2.10;97.30;;;;;;4900071;29;20406;-70
2021/01/24 11:40:57;;;;;;;24.73;11.80;;;2.10;97.30;;;;;;4898697;29;20667;-69
2021/01/24 11:43:25;;;;;;;24.70;11.60;;;2.10;97.30;;;;;;4899023;29;20240;-70
2021/01/24 11:45:51;;;;;;;25.03;11.97;;;2.10;97.30;;;;;;4899208;29;20208;-69
2021/01/24 11:48:16;;;;;;;23.63;10.47;;;2.10;97.30;;;;;;4899545;29;20461;-69
2021/01/24 11:50:42;;;;;;;20.63;9.97;;;2.10;97.30;;;;;;4899537;29;20236;-69
2021/01/24 11:53:07;;;;;;;27.90;12.80;;;2.10;97.30;;;;;;4900387;29;20204;-69
2021/01/24 11:55:33;;;;;;;22.60;10.67;;;2.10;97.30;;;;;;4901917;29;20181;-70
2021/01/24 11:57:59;;;;;;;25.03;12.23;;;2.10;97.30;;;;;;4899607;29;20642;-68
2021/01/24 12:00:24;;;;;;;26.70;13.57;;;2.10;97.30;;;;;;4898512;29;20191;-70
2021/01/24 12:02:50;;;;;;;32.33;15.37;;;2.10;97.30;;;;;;4898815;29;20655;-69
2021/01/24 12:05:16;;;;;;;31.97;13.30;;;2.10;97.30;;;;;;4899576;29;20181;-70
2021/01/24 12:07:41;;;;;;;26.57;12.40;;;2.20;97.30;;;;;;4898406;29;20352;-69
2021/01/24 12:10:07;;;;;;;27.50;11.13;;;2.20;97.30;;;;;;4899494;29;20192;-69
2021/01/24 12:12:33;;;;;;;28.07;11.93;;;2.20;97.30;;;;;;4898557;29;20232;-68
2021/01/24 12:14:59;;;;;;;37.00;13.53;;;2.20;97.30;;;;;;4898671;29;20775;-69
2021/01/24 12:17:24;;;;;;;30.57;14.53;;;2.30;97.30;;;;;;4899927;29;20177;-69
2021/01/24 12:19:54;;;;;;;32.13;13.70;;;2.30;97.30;;;;;;4899467;29;20176;-70
2021/01/24 12:22:20;;;;;;;27.93;12.27;;;2.30;97.30;;;;;;4899367;29;20225;-69
2021/01/24 12:24:45;;;;;;;26.37;12.33;;;2.30;97.30;;;;;;4899601;29;20468;-68
2021/01/24 12:27:11;;;;;;;25.20;12.07;;;2.30;97.30;;;;;;4899419;29;20421;-68
2021/01/24 12:29:37;;;;;;;29.73;13.97;;;2.30;97.30;;;;;;4899249;29;20187;-69
2021/01/24 12:32:02;;;;;;;31.50;14.87;;;2.30;97.30;;;;;;4897930;29;20213;-69
2021/01/24 12:34:28;;;;;;;35.00;16.70;;;2.20;97.30;;;;;;4897930;29;20670;-70
2021/01/24 12:36:54;;;;;;;30.67;14.43;;;2.20;97.30;;;;;;4897861;29;20632;-68
2021/01/24 12:39:19;;;;;;;28.07;12.90;;;2.20;97.30;;;;;;4898494;29;20181;-70
2021/01/24 12:41:45;;;;;;;26.47;13.83;;;2.20;97.30;;;;;;4899037;29;20203;-69
2021/01/24 12:44:10;;;;;;;26.77;11.63;;;2.20;97.30;;;;;;4899398;29;20194;-68
2021/01/24 12:46:36;;;;;;;29.53;12.10;;;2.20;97.30;;;;;;4898005;29;20189;-69
2021/01/24 12:49:03;;;;;;;25.83;11.77;;;2.20;97.30;;;;;;4898915;29;20212;-70
2021/01/24 12:51:31;;;;;;;33.87;13.23;;;2.20;97.30;;;;;;4897149;29;20461;-70
2021/01/24 12:53:58;;;;;;;30.87;13.33;;;2.20;97.30;;;;;;4897907;29;20465;-69
2021/01/24 12:56:25;;;;;;;29.83;13.87;;;2.20;97.30;;;;;;4897796;29;20426;-69
2021/01/24 12:58:52;;;;;;;35.03;17.17;;;2.20;97.30;;;;;;4896964;29;21002;-69
2021/01/24 13:01:18;;;;;;;38.60;16.70;;;2.20;97.30;;;;;;4898744;29;20453;-70
2021/01/24 13:03:45;;;;;;;33.20;14.00;;;2.20;97.30;;;;;;4897514;29;20181;-68
2021/01/24 13:06:12;;;;;;;28.03;13.47;;;2.20;97.30;;;;;;4897763;29;21014;-68
2021/01/24 13:08:38;;;;;;;25.87;12.30;;;2.20;97.30;;;;;;4898081;29;20476;-69
2021/01/24 13:11:04;;;;;;;26.00;11.80;;;2.20;97.30;;;;;;4897279;29;20445;-69
2021/01/24 13:13:30;;;;;;;27.30;12.60;;;2.10;97.30;;;;;;4898906;29;20544;-68
2021/01/24 13:15:56;;;;;;;30.10;15.03;;;2.20;97.30;;;;;;4897001;29;20707;-67
2021/01/24 13:18:21;;;;;;;28.90;13.60;;;2.20;97.30;;;;;;4898941;29;20177;-67
2021/01/24 13:20:48;;;;;;;28.20;13.07;;;2.20;97.30;;;;;;4897226;29;20228;-68
2021/01/24 13:23:14;;;;;;;29.00;13.10;;;2.20;97.30;;;;;;4896949;29;20681;-67
2021/01/24 13:25:39;;;;;;;24.60;11.97;;;2.20;97.30;;;;;;4898233;29;20425;-68
2021/01/24 13:28:06;;;;;;;28.60;12.90;;;2.20;97.30;;;;;;4899639;29;20192;-70
2021/01/24 13:30:33;;;;;;;30.53;13.33;;;2.20;97.30;;;;;;4899345;29;20192;-68
2021/01/24 13:32:59;;;;;;;36.63;14.93;;;2.20;97.30;;;;;;4898963;29;20872;-68
2021/01/24 13:35:25;;;;;;;27.27;12.67;;;2.20;97.30;;;;;;4896847;29;21168;-67
2021/01/24 13:37:51;;;;;;;31.40;14.00;;;2.10;97.30;;;;;;4898363;29;20414;-68
2021/01/24 13:40:18;;;;;;;31.00;14.53;;;2.10;97.30;;;;;;4898004;29;20177;-69
2021/01/24 13:42:44;;;;;;;31.00;13.47;;;2.10;97.30;;;;;;4897260;29;20184;-69
2021/01/24 13:45:10;;;;;;;37.30;14.40;;;2.10;97.30;;;;;;4897279;29;20813;-68
2021/01/24 13:47:36;;;;;;;32.37;13.97;;;2.10;97.30;;;;;;4898063;29;20417;-67
2021/01/24 13:50:02;;;;;;;33.97;13.80;;;2.10;97.30;;;;;;4898392;29;20421;-68
2021/01/24 13:52:28;;;;;;;32.50;13.30;;;2.00;97.30;;;;;;4898256;29;20691;-67
2021/01/24 13:54:53;;;;;;;35.37;13.77;;;2.10;97.30;;;;;;4896965;29;20433;-67
2021/01/24 13:57:19;;;;;;;37.23;16.20;;;2.00;97.30;;;;;;4897043;29;20185;-67
2021/01/24 13:59:46;;;;;;;33.93;13.87;;;2.10;97.30;;;;;;4902098;29;20236;-68
2021/01/24 14:02:15;;;;;;;35.80;14.27;;;2.10;97.30;;;;;;4897253;29;20229;-68
2021/01/24 14:04:45;;;;;;;34.87;13.60;;;2.00;97.30;;;;;;4897637;29;20429;-67
2021/01/24 14:07:10;;;;;;;28.53;13.30;;;2.00;97.30;;;;;;4897475;29;20496;-68
2021/01/24 14:09:36;;;;;;;32.43;14.30;;;2.10;97.30;;;;;;4897540;29;20862;-68
2021/01/24 14:12:02;;;;;;;34.93;13.33;;;2.00;97.30;;;;;;4901145;29;20216;-68
2021/01/24 14:14:28;;;;;;;33.30;12.67;;;2.10;97.30;;;;;;4902252;29;20174;-67
2021/01/24 14:16:54;;;;;;;26.70;12.33;;;2.10;97.30;;;;;;4900610;29;20424;-66
2021/01/24 14:19:19;;;;;;;27.80;13.00;;;2.10;97.30;;;;;;4900563;29;20181;-67
2021/01/24 14:21:45;;;;;;;34.37;12.83;;;2.10;97.30;;;;;;4900371;29;20485;-68
2021/01/24 14:24:11;;;;;;;25.07;11.73;;;2.10;97.30;;;;;;4900410;29;20185;-67
2021/01/24 14:26:37;;;;;;;25.47;12.00;;;2.10;97.30;;;;;;4900421;29;20678;-67
2021/01/24 14:29:02;;;;;;;26.83;11.67;;;2.10;97.30;;;;;;4902108;29;20420;-69
2021/01/24 14:31:29;;;;;;;24.73;11.10;;;2.00;97.30;;;;;;4901251;29;20211;-67
2021/01/24 14:33:55;;;;;;;26.37;11.00;;;2.00;97.30;;;;;;4900425;29;20552;-67
2021/01/24 14:36:23;;;;;;;28.67;11.93;;;1.90;97.30;;;;;;4902163;29;20414;-68
2021/01/24 14:38:49;;;;;;;30.10;12.40;;;1.90;97.30;;;;;;4901957;29;20166;-67
2021/01/24 14:41:18;;;;;;;31.80;13.50;;;1.80;97.30;;;;;;4899935;29;20449;-68
2021/01/24 14:43:45;;;;;;;37.30;12.93;;;1.80;97.30;;;;;;4900179;29;20476;-67
2021/01/24 14:46:11;;;;;;;32.97;13.23;;;1.80;97.30;;;;;;4901398;29;20908;-68
2021/01/24 14:48:37;;;;;;;39.97;14.10;;;1.80;97.30;;;;;;4899912;29;20561;-68
2021/01/24 14:51:03;;;;;;;33.43;12.80;;;1.70;97.30;;;;;;4901234;29;20445;-68
2021/01/24 14:53:30;;;;;;;35.37;13.60;;;1.70;97.30;;;;;;4901241;29;20257;-67
2021/01/24 14:55:55;;;;;;;33.17;12.70;;;1.60;97.30;;;;;;4899838;29;20434;-68
2021/01/24 14:58:21;;;;;;;34.63;14.03;;;1.60;97.30;;;;;;4901467;29;20421;-67
2021/01/24 15:00:47;;;;;;;34.70;13.60;;;1.60;97.30;;;;;;4899421;29;20236;-69
2021/01/24 15:03:12;;;;;;;36.40;14.13;;;1.50;97.30;;;;;;4900827;29;20284;-67
2021/01/24 15:05:38;;;;;;;41.57;15.77;;;1.50;97.30;;;;;;4901160;29;20256;-67
2021/01/24 15:08:07;;;;;;;40.70;15.03;;;1.50;97.30;;;;;;4900674;29;20196;-67
2021/01/24 15:10:36;;;;;;;48.03;18.00;;;1.50;97.30;;;;;;4884109;29;20186;-67
2021/01/24 15:13:03;;;;;;;38.77;15.60;;;1.50;97.30;;;;;;4900908;29;20975;-67
2021/01/24 15:15:28;;;;;;;40.93;16.30;;;1.50;97.30;;;;;;4899384;29;20421;-67
2021/01/24 15:17:55;;;;;;;41.90;16.53;;;1.50;97.30;;;;;;4900859;29;20499;-67
2021/01/24 15:20:21;;;;;;;37.90;15.20;;;1.50;97.30;;;;;;4898892;29;20212;-67
2021/01/24 15:22:46;;;;;;;37.33;14.60;;;1.40;97.30;;;;;;4897627;29;20448;-67
2021/01/24 15:25:12;;;;;;;38.00;15.33;;;1.40;97.30;;;;;;4899137;29;20189;-67
2021/01/24 15:27:38;;;;;;;32.20;13.07;;;1.40;97.30;;;;;;4899206;29;20208;-67
2021/01/24 15:30:04;;;;;;;33.30;13.07;;;1.40;97.30;;;;;;4898883;29;20268;-67
2021/01/24 15:32:30;;;;;;;27.77;12.20;;;1.40;97.30;;;;;;4898873;29;20208;-67
2021/01/24 15:34:55;;;;;;;40.53;14.97;;;1.40;97.30;;;;;;4900761;29;20472;-68
2021/01/24 15:37:23;;;;;;;35.90;14.43;;;1.40;97.30;;;;;;4899096;29;20594;-67
2021/01/24 15:39:49;;;;;;;42.43;15.40;;;1.40;97.30;;;;;;4900169;29;20173;-68
2021/01/24 15:42:15;;;;;;;40.40;13.87;;;1.40;97.30;;;;;;4899196;29;20524;-67
2021/01/24 15:44:40;;;;;;;36.10;15.33;;;1.40;97.30;;;;;;4900195;29;20178;-67
2021/01/24 15:47:06;;;;;;;41.13;14.90;;;1.40;97.30;;;;;;4898907;29;20184;-68
2021/01/24 15:49:31;;;;;;;32.93;15.00;;;1.40;97.30;;;;;;4899134;29;20685;-67
2021/01/24 15:51:57;;;;;;;36.00;14.93;;;1.40;97.30;;;;;;4899837;29;20663;-67
2021/01/24 15:54:23;;;;;;;34.43;14.07;;;1.40;97.30;;;;;;4898837;29;20182;-67
2021/01/24 15:56:49;;;;;;;43.47;16.50;;;1.40;97.30;;;;;;4898999;29;20967;-67
2021/01/24 15:59:15;;;;;;;46.67;17.13;;;1.30;97.30;;;;;;4898579;29;20185;-68
2021/01/24 16:01:41;;;;;;;44.10;17.87;;;1.30;97.30;;;;;;4898156;29;20580;-68
2021/01/24 16:04:06;;;;;;;41.13;16.20;;;1.30;97.30;;;;;;4900192;29;20394;-68
2021/01/24 16:06:35;;;;;;;43.27;15.70;;;1.30;97.30;;;;;;4898680;29;20647;-68
2021/01/24 16:09:01;;;;;;;38.77;16.17;;;1.30;97.30;;;;;;4898291;29;20187;-67
2021/01/24 16:11:26;;;;;;;39.50;16.93;;;1.30;97.30;;;;;;4899815;29;20448;-67
2021/01/24 16:13:52;;;;;;;46.50;16.53;;;1.30;97.30;;;;;;4898302;29;20473;-67
2021/01/24 16:16:18;;;;;;;45.07;16.90;;;1.30;97.30;;;;;;4899553;29;20202;-68
2021/01/24 16:18:43;;;;;;;42.33;16.17;;;1.20;97.30;;;;;;4898360;29;20185;-68
2021/01/24 16:21:10;;;;;;;44.70;17.73;;;1.20;97.30;;;;;;4898873;29;20308;-68
2021/01/24 16:23:36;;;;;;;38.90;16.37;;;1.20;97.30;;;;;;4899058;29;20177;-67
2021/01/24 16:26:02;;;;;;;42.07;17.07;;;1.20;97.30;;;;;;4898468;29;20479;-68
2021/01/24 16:28:27;;;;;;;37.23;15.07;;;1.20;97.30;;;;;;4898013;29;20722;-69
2021/01/24 16:30:53;;;;;;;48.20;16.87;;;1.20;97.30;;;;;;4899120;29;20698;-68
2021/01/24 16:33:19;;;;;;;41.43;16.63;;;1.20;97.30;;;;;;4899583;29;20572;-68
2021/01/24 16:35:44;;;;;;;40.53;15.57;;;1.10;97.30;;;;;;4898060;29;20182;-68
2021/01/24 16:38:11;;;;;;;38.70;16.80;;;1.10;97.30;;;;;;4896818;29;20205;-67
2021/01/24 16:40:37;;;;;;;52.50;19.00;;;1.10;97.30;;;;;;4899303;29;20203;-68
2021/01/24 16:43:05;;;;;;;67.73;23.87;;;1.20;97.30;;;;;;4897554;29;20429;-67
2021/01/24 16:45:31;;;;;;;52.63;18.70;;;1.20;97.30;;;;;;4897640;29;20476;-68
2021/01/24 16:47:56;;;;;;;74.43;26.60;;;1.20;97.30;;;;;;4897786;29;20960;-68
2021/01/24 16:50:22;;;;;;;57.97;21.53;;;1.20;97.30;;;;;;4897371;29;20361;-69
2021/01/24 16:52:48;;;;;;;45.90;18.57;;;1.20;97.30;;;;;;4897443;29;20204;-68
2021/01/24 16:55:13;;;;;;;46.00;18.13;;;1.30;97.30;;;;;;4898988;29;20184;-68
2021/01/24 16:57:39;;;;;;;51.10;18.00;;;1.30;97.30;;;;;;4898632;29;20209;-69
2021/01/24 17:00:06;;;;;;;49.17;19.00;;;1.30;97.30;;;;;;4898629;29;20182;-70
2021/01/24 17:02:33;;;;;;;44.70;16.47;;;1.30;97.30;;;;;;4897759;29;20731;-69
2021/01/24 17:04:59;;;;;;;44.80;18.37;;;1.30;97.30;;;;;;4898711;29;20476;-68
2021/01/24 17:07:25;;;;;;;38.80;16.77;;;1.40;97.30;;;;;;4897238;29;20512;-67
2021/01/24 17:09:50;;;;;;;44.43;18.93;;;1.40;97.30;;;;;;4899497;29;20453;-69
2021/01/24 17:12:16;;;;;;;48.33;19.27;;;1.40;97.30;;;;;;4898500;29;20651;-70
2021/01/24 17:14:43;;;;;;;40.17;16.93;;;1.40;97.30;;;;;;4899690;29;20227;-70
2021/01/24 17:17:09;;;;;;;37.13;15.47;;;1.40;97.30;;;;;;4899661;29;20189;-70
2021/01/24 17:19:36;;;;;;;35.80;14.87;;;1.40;97.30;;;;;;4897412;29;20935;-70
2021/01/24 17:22:02;;;;;;;38.00;14.90;;;1.50;97.30;;;;;;4896976;29;20994;-71
2021/01/24 17:24:28;;;;;;;38.20;15.80;;;1.50;97.30;;;;;;4897633;29;20445;-70
2021/01/24 17:26:53;;;;;;;39.50;15.60;;;1.50;97.30;;;;;;4897161;29;20434;-71
2021/01/24 17:29:20;;;;;;;34.90;14.53;;;1.50;97.30;;;;;;4897148;29;20181;-70
2021/01/24 17:31:48;;;;;;;38.83;14.53;;;1.50;97.30;;;;;;4898523;29;20196;-69
2021/01/24 17:34:14;;;;;;;48.73;17.17;;;1.50;97.30;;;;;;4896946;29;20468;-70
2021/01/24 17:36:40;;;;;;;46.07;17.23;;;1.50;97.30;;;;;;4896842;29;20425;-70
2021/01/24 17:39:05;;;;;;;50.77;17.60;;;1.60;97.30;;;;;;4897244;29;20208;-69
2021/01/24 17:41:31;;;;;;;56.23;20.23;;;1.60;97.30;;;;;;4896327;29;20212;-69
2021/01/24 17:43:57;;;;;;;54.00;20.73;;;1.60;97.30;;;;;;4896889;29;20187;-69
2021/01/24 17:46:23;;;;;;;53.37;19.07;;;1.60;97.30;;;;;;4896717;29;20177;-71
2021/01/24 17:48:48;;;;;;;56.40;21.97;;;1.70;97.30;;;;;;4898117;29;20528;-71
2021/01/24 17:51:15;;;;;;;57.40;19.13;;;1.70;97.30;;;;;;4896304;29;20299;-71
2021/01/24 17:53:43;;;;;;;55.90;20.67;;;1.70;97.30;;;;;;4896642;29;20201;-71
2021/01/24 17:56:09;;;;;;;57.83;21.00;;;1.70;97.30;;;;;;4898069;29;20431;-70
2021/01/24 17:58:34;;;;;;;58.80;19.47;;;1.70;97.30;;;;;;4897815;29;20452;-69
2021/01/24 18:01:00;;;;;;;49.97;17.20;;;1.70;97.30;;;;;;4897580;29;20933;-69
2021/01/24 18:03:25;;;;;;;52.03;18.83;;;1.70;97.30;;;;;;4897018;29;20227;-70
2021/01/24 18:05:51;;;;;;;59.83;20.20;;;1.70;97.30;;;;;;4897767;29;20185;-71
2021/01/24 18:08:18;;;;;;;51.50;17.80;;;1.70;97.30;;;;;;4896609;29;20284;-69
2021/01/24 18:10:43;;;;;;;57.47;21.33;;;1.70;97.30;;;;;;4896792;29;20594;-70
2021/01/24 18:13:09;;;;;;;53.10;19.50;;;1.60;97.30;;;;;;4897788;29;20457;-69
2021/01/24 18:15:35;;;;;;;52.93;18.80;;;1.70;97.30;;;;;;4897804;29;20209;-69
2021/01/24 18:18:01;;;;;;;54.10;19.87;;;1.70;97.30;;;;;;4897861;29;20469;-69
2021/01/24 18:20:27;;;;;;;54.13;18.77;;;1.70;97.30;;;;;;4896400;29;20178;-70
2021/01/24 18:22:53;;;;;;;45.57;18.30;;;1.70;97.30;;;;;;4897729;29;20185;-70
2021/01/24 18:25:20;;;;;;;56.83;19.00;;;1.70;97.30;;;;;;4896675;29;20417;-69
2021/01/24 18:27:46;;;;;;;58.50;19.30;;;1.60;97.30;;;;;;4897836;29;20182;-69
2021/01/24 18:30:13;;;;;;;45.30;17.43;;;1.60;97.30;;;;;;4897927;29;20442;-70
2021/01/24 18:32:39;;;;;;;47.17;17.30;;;1.60;97.30;;;;;;4896364;29;21007;-69
2021/01/24 18:35:05;;;;;;;50.03;18.37;;;1.70;97.30;;;;;;4897646;29;20413;-70